Shouyoumaru — JD2564 — position and weather

sailwx.info

Track history (hours):
 
Tides and Currents Weather Stations Pressure Air Temp Water Temp Dewpoint Dewpoint Depression Visibility Wind Speed Wind Dir Waves Ship Positions

Shouyoumaru

Last reported at 2018-Apr-22 06:29 UTC. Time now 2018-Apr-22 08:22 UTC.
Position N 34°07' E 135°08'.

Length 60 m.

Type: Tanker. MMSI: 431000407.

Date/timePositionNaut miles runAvg speedWind from/ knotsBaromVisibWave heightAir tempDewpointWater temp
2018-Apr-22 06:29N 34°07' E 135°08'0 0.6
2018-Apr-22 06:00N 34°07' E 135°08'0 0.6
2018-Apr-22 05:10N 34°08' E 135°07'0 0.0
2018-Apr-22 04:55N 34°08' E 135°07'0 0.0
2018-Apr-22 04:28N 34°08' E 135°07'0 0.0
2018-Apr-22 03:58N 34°08' E 135°07'0 0.0
2018-Apr-22 03:22N 34°08' E 135°07'0 0.0
2018-Apr-22 02:37N 34°08' E 135°07'0 0.0
2018-Apr-22 02:19N 34°08' E 135°07'0 0.0
2018-Apr-22 01:07N 34°08' E 135°07'0 0.0
2018-Apr-22 00:43N 34°08' E 135°07'0 0.2
2018-Apr-22 00:28N 34°08' E 135°07'0 0.1
2018-Apr-21 23:58N 34°08' E 135°07'0 0.0
2018-Apr-21 23:28N 34°08' E 135°07'0 0.0
2018-Apr-21 22:52N 34°08' E 135°07'0 0.0
2018-Apr-21 22:28N 34°08' E 135°07'0 0.0
2018-Apr-21 21:55N 34°08' E 135°07'0 0.0
2018-Apr-21 21:28N 34°08' E 135°07'0 0.0
2018-Apr-21 20:55N 34°08' E 135°07'0 0.0
2018-Apr-21 20:28N 34°08' E 135°07'0 0.0
2018-Apr-21 19:58N 34°08' E 135°07'0 0.1
2018-Apr-21 19:28N 34°08' E 135°07'0 0.0
2018-Apr-21 18:58N 34°08' E 135°07'0 0.0
2018-Apr-21 18:28N 34°08' E 135°07'0 0.0
2018-Apr-21 17:58N 34°08' E 135°07'0 0.0
2018-Apr-21 17:28N 34°08' E 135°07'0 0.0
2018-Apr-21 16:58N 34°08' E 135°07'0 0.0
2018-Apr-21 16:28N 34°08' E 135°07'0 0.0
2018-Apr-21 15:55N 34°08' E 135°07'0 0.1
2018-Apr-21 15:28N 34°08' E 135°07'0 0.0
2018-Apr-21 14:55N 34°08' E 135°07'0 0.0
2018-Apr-21 14:25N 34°08' E 135°07'0 0.0
2018-Apr-21 13:58N 34°08' E 135°07'0 0.0
2018-Apr-21 13:19N 34°08' E 135°07'0 0.0
2018-Apr-21 12:55N 34°08' E 135°07'0 0.1
2018-Apr-21 12:19N 34°08' E 135°07'0 0.0
2018-Apr-21 11:49N 34°08' E 135°07'0 0.1
2018-Apr-21 11:19N 34°08' E 135°07'0 0.0
2018-Apr-21 10:49N 34°08' E 135°07'0 0.0
2018-Apr-21 10:25N 34°08' E 135°07'0 0.1
2018-Apr-21 09:59N 34°08' E 135°07'510.7
2018-Apr-21 09:30N 34°08' E 135°01'611.6
2018-Apr-21 09:00N 34°08' E 134°54'510.9
2018-Apr-21 08:30N 34°09' E 134°47'711.8
2018-Apr-21 07:56N 34°13' E 134°41'512.0
2018-Apr-21 07:30N 34°16' E 134°36'1211.4
2018-Apr-21 06:25N 34°21' E 134°22'36 1.6
2018-Apr-20 07:15N 33°57' E 134°56'236 9.3
2018-Apr-19 05:53N 35°00' E 139°31'4 9.9
2018-Apr-19 05:27N 35°03' E 139°35'510.6
2018-Apr-19 05:00N 35°06' E 139°40'510.9
2018-Apr-19 04:30N 35°10' E 139°45'510.9
2018-Apr-19 04:00N 35°15' E 139°46'510.7
2018-Apr-19 03:30N 35°20' E 139°42'510.2
2018-Apr-19 03:00N 35°25' E 139°43'510.7
2018-Apr-19 02:29N 35°29' E 139°47'3 5.2
2018-Apr-19 01:59N 35°31' E 139°46'0 0.0
2018-Apr-19 01:20N 35°31' E 139°46'0 0.0
2018-Apr-19 00:50N 35°31' E 139°46'0 0.0
2018-Apr-19 00:29N 35°31' E 139°46'0 0.0
2018-Apr-18 23:14N 35°31' E 139°46'0 0.0
2018-Apr-18 22:59N 35°31' E 139°46'0 0.0
2018-Apr-18 22:29N 35°31' E 139°46'0 0.0
2018-Apr-18 21:56N 35°31' E 139°46'2 3.6
2018-Apr-18 21:19N 35°30' E 139°48'1 0.7
2018-Apr-18 20:05N 35°29' E 139°48'0 0.0
2018-Apr-18 19:56N 35°29' E 139°48'0 0.0
2018-Apr-18 19:26N 35°29' E 139°48'0 0.1
2018-Apr-18 18:24N 35°29' E 139°48'511.4
2018-Apr-18 17:59N 35°24' E 139°46'612.1
2018-Apr-18 17:30N 35°19' E 139°44'611.3
2018-Apr-18 17:00N 35°14' E 139°47'611.0
2018-Apr-18 16:30N 35°08' E 139°44'611.3
2018-Apr-18 15:57N 35°03' E 139°40'3512.2
2018-Apr-18 13:06N 34°42' E 139°06'106 2.0
2018-Apr-16 09:13N 34°40' E 136°58'410.7
2018-Apr-16 08:52N 34°41' E 136°54'511.2
2018-Apr-16 08:27N 34°44' E 136°49'510.8
2018-Apr-16 07:59N 34°48' E 136°45'511.1
2018-Apr-16 07:30N 34°53' E 136°42'510.4
2018-Apr-16 07:00N 34°58' E 136°41'1 0.5
2018-Apr-16 04:40N 34°59' E 136°39'0 0.0
2018-Apr-16 04:28N 34°59' E 136°39'0 0.0
2018-Apr-16 03:58N 34°59' E 136°39'0 0.0
2018-Apr-15 23:46N 34°59' E 136°39'0 0.0
2018-Apr-15 23:22N 34°59' E 136°39'2 6.0
2018-Apr-15 22:59N 34°58' E 136°42'2 3.6
2018-Apr-15 22:22N 34°59' E 136°45'0 0.1
2018-Apr-15 21:58N 34°59' E 136°45'0 0.0
2018-Apr-15 21:28N 34°59' E 136°45'0 0.0
2018-Apr-15 20:58N 34°59' E 136°45'0 0.0
2018-Apr-15 20:28N 34°59' E 136°45'0 0.0
2018-Apr-15 19:58N 34°59' E 136°45'0 0.0
2018-Apr-15 19:22N 34°59' E 136°45'0 0.0
2018-Apr-15 18:58N 34°59' E 136°45'0 0.0
2018-Apr-15 18:28N 34°59' E 136°45'0 0.0
2018-Apr-15 17:58N 34°59' E 136°45'0 0.0
2018-Apr-15 17:28N 34°59' E 136°45'0 0.0
2018-Apr-15 16:58N 34°59' E 136°45'0 0.1
2018-Apr-15 16:28N 34°59' E 136°45'0 0.0
2018-Apr-15 15:58N 34°59' E 136°45'0 0.0
2018-Apr-15 15:28N 34°59' E 136°45'0 0.0
2018-Apr-15 14:58N 34°59' E 136°45'0 0.0
2018-Apr-15 14:28N 34°59' E 136°45'0 0.0
2018-Apr-15 13:55N 34°59' E 136°45'0 0.0
2018-Apr-15 13:19N 34°59' E 136°45'0 0.1
2018-Apr-15 12:52N 34°59' E 136°45'0 0.0
2018-Apr-15 12:28N 34°59' E 136°45'0 0.0
2018-Apr-15 11:52N 34°59' E 136°45'0 0.0
2018-Apr-15 11:25N 34°59' E 136°45'0 0.0
2018-Apr-15 10:58N 34°59' E 136°45'0 0.0
2018-Apr-15 10:28N 34°59' E 136°45'0 0.0
2018-Apr-15 09:58N 34°59' E 136°45'0 0.0
2018-Apr-15 09:28N 34°59' E 136°45'0 0.0
2018-Apr-15 08:58N 34°59' E 136°45'0 0.0
2018-Apr-15 08:28N 34°59' E 136°45'0 0.0
2018-Apr-15 07:58N 34°59' E 136°45'0 0.0
2018-Apr-15 07:28N 34°59' E 136°45'0 0.0
2018-Apr-15 06:58N 34°59' E 136°45'0 0.0
2018-Apr-15 06:28N 34°59' E 136°45'0 0.0
2018-Apr-15 05:58N 34°59' E 136°45'0 0.0
2018-Apr-15 05:28N 34°59' E 136°45'0 0.1
2018-Apr-15 04:58N 34°59' E 136°45'0 0.0
2018-Apr-15 04:28N 34°59' E 136°45'0 0.2
2018-Apr-15 04:00N 34°59' E 136°45'5 9.1
2018-Apr-15 03:30N 35°00' E 136°50'1 1.8
2018-Apr-15 02:59N 35°00' E 136°51'0 0.0
2018-Apr-15 02:29N 35°00' E 136°51'0 0.0
2018-Apr-15 01:59N 35°00' E 136°51'0 0.0
2018-Apr-15 01:29N 35°00' E 136°51'0 0.0
2018-Apr-15 00:59N 35°00' E 136°51'0 0.0
2018-Apr-15 00:29N 35°00' E 136°51'0 0.9
2018-Apr-15 00:00N 35°00' E 136°51'4 7.4
2018-Apr-14 23:30N 34°58' E 136°47'1 2.0
2018-Apr-14 23:01N 34°57' E 136°46'0 0.0
2018-Apr-14 22:25N 34°57' E 136°46'0 0.1
2018-Apr-14 21:58N 34°57' E 136°46'0 0.0
2018-Apr-14 21:28N 34°57' E 136°46'0 0.0
2018-Apr-14 20:55N 34°57' E 136°46'0 0.0
2018-Apr-14 20:28N 34°57' E 136°46'0 0.0
2018-Apr-14 19:55N 34°57' E 136°46'0 0.0
2018-Apr-14 19:28N 34°57' E 136°46'0 0.0
2018-Apr-14 18:58N 34°57' E 136°46'0 0.0
2018-Apr-14 18:19N 34°57' E 136°46'0 0.0
2018-Apr-14 17:55N 34°57' E 136°46'0 0.0
2018-Apr-14 17:25N 34°57' E 136°46'0 0.0
2018-Apr-14 16:58N 34°57' E 136°46'0 0.0
2018-Apr-14 16:31N 34°57' E 136°46'4 7.8
2018-Apr-14 16:00N 34°53' E 136°47'610.9
2018-Apr-14 15:30N 34°48' E 136°48'  
Track history (hours):
 
Tides and Currents Weather Stations Pressure Air Temp Water Temp Dewpoint Dewpoint Depression Visibility Wind Speed Wind Dir Waves Ship Positions

Shouyoumaru

Last reported at 2018-Apr-22 06:29 UTC. Time now 2018-Apr-22 08:22 UTC.
Position N 34°07' E 135°08'.

Length 60 m.

Type: Tanker. MMSI: 431000407.

Date/timePositionNaut miles runAvg speedWind from/ knotsBaromVisibWave heightAir tempDewpointWater temp
2018-Apr-22 06:29N 34°07' E 135°08'0 0.6
2018-Apr-22 06:00N 34°07' E 135°08'0 0.6
2018-Apr-22 05:10N 34°08' E 135°07'0 0.0
2018-Apr-22 04:55N 34°08' E 135°07'0 0.0
2018-Apr-22 04:28N 34°08' E 135°07'0 0.0
2018-Apr-22 03:58N 34°08' E 135°07'0 0.0
2018-Apr-22 03:22N 34°08' E 135°07'0 0.0
2018-Apr-22 02:37N 34°08' E 135°07'0 0.0
2018-Apr-22 02:19N 34°08' E 135°07'0 0.0
2018-Apr-22 01:07N 34°08' E 135°07'0 0.0
2018-Apr-22 00:43N 34°08' E 135°07'0 0.2
2018-Apr-22 00:28N 34°08' E 135°07'0 0.1
2018-Apr-21 23:58N 34°08' E 135°07'0 0.0
2018-Apr-21 23:28N 34°08' E 135°07'0 0.0
2018-Apr-21 22:52N 34°08' E 135°07'0 0.0
2018-Apr-21 22:28N 34°08' E 135°07'0 0.0
2018-Apr-21 21:55N 34°08' E 135°07'0 0.0
2018-Apr-21 21:28N 34°08' E 135°07'0 0.0
2018-Apr-21 20:55N 34°08' E 135°07'0 0.0
2018-Apr-21 20:28N 34°08' E 135°07'0 0.0
2018-Apr-21 19:58N 34°08' E 135°07'0 0.1
2018-Apr-21 19:28N 34°08' E 135°07'0 0.0
2018-Apr-21 18:58N 34°08' E 135°07'0 0.0
2018-Apr-21 18:28N 34°08' E 135°07'0 0.0
2018-Apr-21 17:58N 34°08' E 135°07'0 0.0
2018-Apr-21 17:28N 34°08' E 135°07'0 0.0
2018-Apr-21 16:58N 34°08' E 135°07'0 0.0
2018-Apr-21 16:28N 34°08' E 135°07'0 0.0
2018-Apr-21 15:55N 34°08' E 135°07'0 0.1
2018-Apr-21 15:28N 34°08' E 135°07'0 0.0
2018-Apr-21 14:55N 34°08' E 135°07'0 0.0
2018-Apr-21 14:25N 34°08' E 135°07'0 0.0
2018-Apr-21 13:58N 34°08' E 135°07'0 0.0
2018-Apr-21 13:19N 34°08' E 135°07'0 0.0
2018-Apr-21 12:55N 34°08' E 135°07'0 0.1
2018-Apr-21 12:19N 34°08' E 135°07'0 0.0
2018-Apr-21 11:49N 34°08' E 135°07'0 0.1
2018-Apr-21 11:19N 34°08' E 135°07'0 0.0
2018-Apr-21 10:49N 34°08' E 135°07'0 0.0
2018-Apr-21 10:25N 34°08' E 135°07'0 0.1
2018-Apr-21 09:59N 34°08' E 135°07'510.7
2018-Apr-21 09:30N 34°08' E 135°01'611.6
2018-Apr-21 09:00N 34°08' E 134°54'510.9
2018-Apr-21 08:30N 34°09' E 134°47'711.8
2018-Apr-21 07:56N 34°13' E 134°41'512.0
2018-Apr-21 07:30N 34°16' E 134°36'1211.4
2018-Apr-21 06:25N 34°21' E 134°22'36 1.6
2018-Apr-20 07:15N 33°57' E 134°56'236 9.3
2018-Apr-19 05:53N 35°00' E 139°31'4 9.9
2018-Apr-19 05:27N 35°03' E 139°35'510.6
2018-Apr-19 05:00N 35°06' E 139°40'510.9
2018-Apr-19 04:30N 35°10' E 139°45'510.9
2018-Apr-19 04:00N 35°15' E 139°46'510.7
2018-Apr-19 03:30N 35°20' E 139°42'510.2
2018-Apr-19 03:00N 35°25' E 139°43'510.7
2018-Apr-19 02:29N 35°29' E 139°47'3 5.2
2018-Apr-19 01:59N 35°31' E 139°46'0 0.0
2018-Apr-19 01:20N 35°31' E 139°46'0 0.0
2018-Apr-19 00:50N 35°31' E 139°46'0 0.0
2018-Apr-19 00:29N 35°31' E 139°46'0 0.0
2018-Apr-18 23:14N 35°31' E 139°46'0 0.0
2018-Apr-18 22:59N 35°31' E 139°46'0 0.0
2018-Apr-18 22:29N 35°31' E 139°46'0 0.0
2018-Apr-18 21:56N 35°31' E 139°46'2 3.6
2018-Apr-18 21:19N 35°30' E 139°48'1 0.7
2018-Apr-18 20:05N 35°29' E 139°48'0 0.0
2018-Apr-18 19:56N 35°29' E 139°48'0 0.0
2018-Apr-18 19:26N 35°29' E 139°48'0 0.1
2018-Apr-18 18:24N 35°29' E 139°48'511.4
2018-Apr-18 17:59N 35°24' E 139°46'612.1
2018-Apr-18 17:30N 35°19' E 139°44'611.3
2018-Apr-18 17:00N 35°14' E 139°47'611.0
2018-Apr-18 16:30N 35°08' E 139°44'611.3
2018-Apr-18 15:57N 35°03' E 139°40'3512.2
2018-Apr-18 13:06N 34°42' E 139°06'106 2.0
2018-Apr-16 09:13N 34°40' E 136°58'410.7
2018-Apr-16 08:52N 34°41' E 136°54'511.2
2018-Apr-16 08:27N 34°44' E 136°49'510.8
2018-Apr-16 07:59N 34°48' E 136°45'511.1
2018-Apr-16 07:30N 34°53' E 136°42'510.4
2018-Apr-16 07:00N 34°58' E 136°41'1 0.5
2018-Apr-16 04:40N 34°59' E 136°39'0 0.0
2018-Apr-16 04:28N 34°59' E 136°39'0 0.0
2018-Apr-16 03:58N 34°59' E 136°39'0 0.0
2018-Apr-15 23:46N 34°59' E 136°39'0 0.0
2018-Apr-15 23:22N 34°59' E 136°39'2 6.0
2018-Apr-15 22:59N 34°58' E 136°42'2 3.6
2018-Apr-15 22:22N 34°59' E 136°45'0 0.1
2018-Apr-15 21:58N 34°59' E 136°45'0 0.0
2018-Apr-15 21:28N 34°59' E 136°45'0 0.0
2018-Apr-15 20:58N 34°59' E 136°45'0 0.0
2018-Apr-15 20:28N 34°59' E 136°45'0 0.0
2018-Apr-15 19:58N 34°59' E 136°45'0 0.0
2018-Apr-15 19:22N 34°59' E 136°45'0 0.0
2018-Apr-15 18:58N 34°59' E 136°45'0 0.0
2018-Apr-15 18:28N 34°59' E 136°45'0 0.0
2018-Apr-15 17:58N 34°59' E 136°45'0 0.0
2018-Apr-15 17:28N 34°59' E 136°45'0 0.0
2018-Apr-15 16:58N 34°59' E 136°45'0 0.1
2018-Apr-15 16:28N 34°59' E 136°45'0 0.0
2018-Apr-15 15:58N 34°59' E 136°45'0 0.0
2018-Apr-15 15:28N 34°59' E 136°45'0 0.0
2018-Apr-15 14:58N 34°59' E 136°45'0 0.0
2018-Apr-15 14:28N 34°59' E 136°45'0 0.0
2018-Apr-15 13:55N 34°59' E 136°45'0 0.0
2018-Apr-15 13:19N 34°59' E 136°45'0 0.1
2018-Apr-15 12:52N 34°59' E 136°45'0 0.0
2018-Apr-15 12:28N 34°59' E 136°45'0 0.0
2018-Apr-15 11:52N 34°59' E 136°45'0 0.0
2018-Apr-15 11:25N 34°59' E 136°45'0 0.0
2018-Apr-15 10:58N 34°59' E 136°45'0 0.0
2018-Apr-15 10:28N 34°59' E 136°45'0 0.0
2018-Apr-15 09:58N 34°59' E 136°45'0 0.0
2018-Apr-15 09:28N 34°59' E 136°45'0 0.0
2018-Apr-15 08:58N 34°59' E 136°45'0 0.0
2018-Apr-15 08:28N 34°59' E 136°45'0 0.0
2018-Apr-15 07:58N 34°59' E 136°45'0 0.0
2018-Apr-15 07:28N 34°59' E 136°45'0 0.0
2018-Apr-15 06:58N 34°59' E 136°45'0 0.0
2018-Apr-15 06:28N 34°59' E 136°45'0 0.0
2018-Apr-15 05:58N 34°59' E 136°45'0 0.0
2018-Apr-15 05:28N 34°59' E 136°45'0 0.1
2018-Apr-15 04:58N 34°59' E 136°45'0 0.0
2018-Apr-15 04:28N 34°59' E 136°45'0 0.2
2018-Apr-15 04:00N 34°59' E 136°45'5 9.1
2018-Apr-15 03:30N 35°00' E 136°50'1 1.8
2018-Apr-15 02:59N 35°00' E 136°51'0 0.0
2018-Apr-15 02:29N 35°00' E 136°51'0 0.0
2018-Apr-15 01:59N 35°00' E 136°51'0 0.0
2018-Apr-15 01:29N 35°00' E 136°51'0 0.0
2018-Apr-15 00:59N 35°00' E 136°51'0 0.0
2018-Apr-15 00:29N 35°00' E 136°51'0 0.9
2018-Apr-15 00:00N 35°00' E 136°51'4 7.4
2018-Apr-14 23:30N 34°58' E 136°47'1 2.0
2018-Apr-14 23:01N 34°57' E 136°46'0 0.0
2018-Apr-14 22:25N 34°57' E 136°46'0 0.1
2018-Apr-14 21:58N 34°57' E 136°46'0 0.0
2018-Apr-14 21:28N 34°57' E 136°46'0 0.0
2018-Apr-14 20:55N 34°57' E 136°46'0 0.0
2018-Apr-14 20:28N 34°57' E 136°46'0 0.0
2018-Apr-14 19:55N 34°57' E 136°46'0 0.0
2018-Apr-14 19:28N 34°57' E 136°46'0 0.0
2018-Apr-14 18:58N 34°57' E 136°46'0 0.0
2018-Apr-14 18:19N 34°57' E 136°46'0 0.0
2018-Apr-14 17:55N 34°57' E 136°46'0 0.0
2018-Apr-14 17:25N 34°57' E 136°46'0 0.0
2018-Apr-14 16:58N 34°57' E 136°46'0 0.0
2018-Apr-14 16:31N 34°57' E 136°46'4 7.8
2018-Apr-14 16:00N 34°53' E 136°47'610.9
2018-Apr-14 15:30N 34°48' E 136°48'  

Dump ship's entire track history